createdAt,value
2023-04-23T00:00:12.202Z,8.26
2023-04-23T00:02:45.130Z,8.24
2023-04-23T00:05:13.109Z,8.20
2023-04-23T00:07:41.897Z,8.20
2023-04-23T00:10:10.149Z,8.18
2023-04-23T00:12:37.864Z,8.17
2023-04-23T00:15:06.906Z,8.16
2023-04-23T00:17:34.196Z,8.15
2023-04-23T00:20:01.857Z,8.14
2023-04-23T00:22:29.054Z,8.12
2023-04-23T00:24:56.520Z,8.10
2023-04-23T00:27:23.795Z,8.06
2023-04-23T00:29:51.526Z,8.03
2023-04-23T00:32:18.829Z,8.00
2023-04-23T00:34:48.858Z,7.99
2023-04-23T00:37:16.586Z,7.96
2023-04-23T00:39:44.272Z,7.95
2023-04-23T00:42:12.679Z,7.94
2023-04-23T00:44:41.891Z,7.94
2023-04-23T00:47:10.352Z,7.92
2023-04-23T00:49:39.380Z,7.92
2023-04-23T00:52:06.811Z,7.93
2023-04-23T00:54:34.425Z,7.92
2023-04-23T00:57:02.409Z,7.92
2023-04-23T00:59:31.590Z,7.93
2023-04-23T01:01:59.459Z,7.93
2023-04-23T01:04:29.517Z,7.92
2023-04-23T01:06:59.150Z,7.93
2023-04-23T01:09:27.879Z,7.92
2023-04-23T01:11:57.915Z,7.92
2023-04-23T01:14:26.304Z,7.91
2023-04-23T01:16:54.031Z,7.92
2023-04-23T01:19:21.292Z,7.93
2023-04-23T01:21:51.373Z,7.92
2023-04-23T01:24:18.662Z,7.93
2023-04-23T01:26:46.795Z,7.94
2023-04-23T01:29:14.333Z,7.96
2023-04-23T01:31:42.334Z,7.97
2023-04-23T01:34:11.132Z,7.99
2023-04-23T01:36:38.664Z,8.00
2023-04-23T01:39:05.905Z,8.03
2023-04-23T01:41:34.941Z,8.06
2023-04-23T01:44:02.416Z,8.06
2023-04-23T01:46:30.854Z,8.10
2023-04-23T01:48:58.128Z,8.10
2023-04-23T01:51:27.298Z,8.12
2023-04-23T01:53:54.569Z,8.12
2023-04-23T01:56:27.201Z,8.13
2023-04-23T01:58:54.753Z,8.13
2023-04-23T02:01:22.365Z,8.16
2023-04-23T02:03:50.961Z,8.15
2023-04-23T02:06:18.342Z,8.15
2023-04-23T02:08:45.572Z,8.14
2023-04-23T02:11:12.847Z,8.10
2023-04-23T02:13:41.330Z,8.08
2023-04-23T02:16:08.781Z,8.05
2023-04-23T02:18:36.077Z,8.01
2023-04-23T02:21:04.664Z,8.00
2023-04-23T02:23:32.016Z,7.99
2023-04-23T02:25:59.342Z,7.99
2023-04-23T02:28:26.683Z,7.98
2023-04-23T02:30:53.959Z,7.99
2023-04-23T02:33:21.531Z,8.00
2023-04-23T02:35:48.726Z,8.01
2023-04-23T02:38:16.553Z,8.02
2023-04-23T02:40:43.804Z,8.03
2023-04-23T02:43:11.090Z,8.05
2023-04-23T02:45:38.482Z,8.05
2023-04-23T02:48:05.710Z,8.05
2023-04-23T02:50:32.968Z,8.04
2023-04-23T02:53:00.216Z,8.03
2023-04-23T02:55:29.791Z,8.02
2023-04-23T02:57:58.336Z,7.99
2023-04-23T03:00:29.814Z,7.97
2023-04-23T03:02:57.326Z,7.95
2023-04-23T03:05:24.859Z,7.92
2023-04-23T03:07:52.068Z,7.89
2023-04-23T03:10:19.432Z,7.86
2023-04-23T03:12:46.623Z,7.83
2023-04-23T03:15:15.994Z,7.79
2023-04-23T03:17:43.944Z,7.76
2023-04-23T03:20:11.702Z,7.73
2023-04-23T03:22:40.310Z,7.70
2023-04-23T03:25:08.719Z,7.68
2023-04-23T03:27:37.337Z,7.64
2023-04-23T03:30:08.852Z,7.60
2023-04-23T03:32:36.452Z,7.58
2023-04-23T03:35:04.450Z,7.55
2023-04-23T03:37:32.048Z,7.53
2023-04-23T03:39:59.504Z,7.50
2023-04-23T03:42:27.273Z,7.46
2023-04-23T03:44:54.923Z,7.41
2023-04-23T03:47:22.241Z,7.37
2023-04-23T03:49:49.613Z,7.34
2023-04-23T03:52:16.937Z,7.32
2023-04-23T03:54:44.291Z,7.29
2023-04-23T03:57:17.654Z,7.28
2023-04-23T04:00:12.419Z,7.23
2023-04-23T04:02:42.407Z,7.20
2023-04-23T04:05:11.501Z,7.17
2023-04-23T04:07:39.806Z,7.15
2023-04-23T04:10:07.762Z,7.13
2023-04-23T04:12:35.457Z,7.11
2023-04-23T04:15:03.606Z,7.10
2023-04-23T04:17:31.376Z,7.08
2023-04-23T04:19:58.675Z,7.07
2023-04-23T04:22:25.847Z,7.06
2023-04-23T04:24:53.219Z,7.06
2023-04-23T04:27:20.774Z,7.07
2023-04-23T04:29:48.457Z,7.07
2023-04-23T04:32:16.252Z,7.06
2023-04-23T04:34:43.854Z,7.07
2023-04-23T04:37:11.679Z,7.08
2023-04-23T04:39:38.971Z,7.11
2023-04-23T04:42:07.640Z,7.15
2023-04-23T04:44:37.596Z,7.20
2023-04-23T04:47:08.512Z,7.25
2023-04-23T04:49:36.170Z,7.28
2023-04-23T04:52:03.422Z,7.29
2023-04-23T04:54:30.560Z,7.33
2023-04-23T04:56:57.816Z,7.37
2023-04-23T04:59:25.058Z,7.42
2023-04-23T05:01:52.434Z,7.47
2023-04-23T05:04:19.715Z,7.53
2023-04-23T05:06:47.068Z,7.59
2023-04-23T05:09:14.268Z,7.65
2023-04-23T05:11:44.725Z,7.73
2023-04-23T05:14:12.240Z,7.78
2023-04-23T05:16:39.520Z,7.83
2023-04-23T05:19:11.020Z,7.88
2023-04-23T05:21:38.628Z,7.92
2023-04-23T05:24:05.980Z,7.97
2023-04-23T05:26:33.255Z,8.01
2023-04-23T05:29:00.503Z,8.05
2023-04-23T05:31:29.314Z,8.12
2023-04-23T05:33:56.733Z,8.19
2023-04-23T05:36:24.077Z,8.24
2023-04-23T05:38:51.272Z,8.24
2023-04-23T05:41:18.571Z,8.23
2023-04-23T05:43:45.839Z,8.23
2023-04-23T05:46:13.041Z,8.23
2023-04-23T05:48:40.256Z,8.26
2023-04-23T05:51:07.942Z,8.28
2023-04-23T05:53:35.383Z,8.31
2023-04-23T05:56:02.637Z,8.35
2023-04-23T05:58:29.807Z,8.39
2023-04-23T06:00:57.720Z,8.42
2023-04-23T06:03:25.237Z,8.46
2023-04-23T06:05:52.674Z,8.50
2023-04-23T06:08:20.484Z,8.51
2023-04-23T06:10:47.871Z,8.50
2023-04-23T06:13:15.529Z,8.50
2023-04-23T06:15:42.888Z,8.50
2023-04-23T06:18:10.738Z,8.53
2023-04-23T06:20:38.181Z,8.57
2023-04-23T06:23:06.573Z,8.61
2023-04-23T06:25:33.848Z,8.61
2023-04-23T06:28:01.099Z,8.63
2023-04-23T06:30:39.307Z,8.69
2023-04-23T06:33:09.156Z,8.74
2023-04-23T06:35:36.641Z,8.81
2023-04-23T06:38:03.857Z,8.87
2023-04-23T06:40:31.075Z,8.90
2023-04-23T06:42:58.470Z,8.95
2023-04-23T06:45:41.328Z,9.06
2023-04-23T06:48:08.728Z,9.16
2023-04-23T06:50:35.956Z,9.26
2023-04-23T06:53:03.259Z,9.32
2023-04-23T06:55:30.460Z,9.40
2023-04-23T06:57:58.034Z,9.50
2023-04-23T07:00:25.441Z,9.62
2023-04-23T07:02:53.174Z,9.74
2023-04-23T07:05:20.746Z,9.91
2023-04-23T07:07:47.946Z,10.04
2023-04-23T07:10:17.791Z,10.23
2023-04-23T07:12:45.561Z,10.43
2023-04-23T07:15:12.784Z,10.66
2023-04-23T07:17:40.125Z,10.88
2023-04-23T07:20:08.714Z,11.08
2023-04-23T07:22:35.978Z,11.29
2023-04-23T07:25:05.204Z,11.47
2023-04-23T07:27:32.662Z,11.62
2023-04-23T07:29:59.878Z,11.75
2023-04-23T07:32:28.293Z,11.87
2023-04-23T07:34:56.265Z,11.99
2023-04-23T07:37:23.590Z,12.11
2023-04-23T07:39:51.203Z,12.19
2023-04-23T07:42:18.567Z,12.26
2023-04-23T07:44:45.814Z,12.36
2023-04-23T07:47:13.114Z,12.37
2023-04-23T07:49:40.614Z,12.33
2023-04-23T07:52:08.334Z,12.40
2023-04-23T07:54:35.540Z,12.48
2023-04-23T07:57:03.264Z,12.55
2023-04-23T07:59:30.718Z,12.62
2023-04-23T08:01:58.057Z,12.62
2023-04-23T08:04:25.896Z,12.62
2023-04-23T08:06:53.331Z,12.64
2023-04-23T08:09:20.904Z,12.72
2023-04-23T08:11:48.457Z,12.81
2023-04-23T08:14:15.766Z,12.78
2023-04-23T08:16:44.058Z,12.82
2023-04-23T08:19:11.814Z,12.81
2023-04-23T08:21:39.757Z,12.82
2023-04-23T08:24:08.016Z,12.79
2023-04-23T08:26:36.612Z,12.68
2023-04-23T08:29:05.234Z,12.73
2023-04-23T08:31:32.969Z,12.85
2023-04-23T08:34:00.337Z,12.96
2023-04-23T08:36:27.719Z,13.04
2023-04-23T08:38:55.050Z,13.12
2023-04-23T08:41:24.467Z,13.23
2023-04-23T08:44:14.894Z,13.36
2023-04-23T08:46:43.554Z,13.38
2023-04-23T08:49:18.760Z,13.53
2023-04-23T08:51:48.733Z,13.76
2023-04-23T08:54:27.964Z,13.93
2023-04-23T08:56:58.334Z,13.99
2023-04-23T08:59:32.060Z,14.00
2023-04-23T09:02:01.251Z,13.99
2023-04-23T09:04:29.315Z,14.09
2023-04-23T09:06:56.898Z,14.18
2023-04-23T09:09:24.655Z,14.28
2023-04-23T09:11:54.100Z,14.41
2023-04-23T09:14:25.552Z,14.56
2023-04-23T09:16:54.024Z,14.59
2023-04-23T09:19:21.441Z,14.60
2023-04-23T09:21:48.633Z,14.63
2023-04-23T09:24:17.868Z,14.61
2023-04-23T09:26:47.071Z,14.55
2023-04-23T09:29:18.450Z,14.68
2023-04-23T09:31:47.957Z,14.85
2023-04-23T09:34:20.033Z,15.03
2023-04-23T09:36:53.048Z,15.07
2023-04-23T09:39:23.751Z,15.15
2023-04-23T09:41:54.453Z,15.25
2023-04-23T09:44:22.946Z,15.40
2023-04-23T09:46:51.044Z,15.47
2023-04-23T09:49:18.410Z,15.55
2023-04-23T09:51:48.086Z,15.66
2023-04-23T09:54:22.879Z,15.71
2023-04-23T09:56:57.121Z,15.71
2023-04-23T09:59:39.905Z,15.69
2023-04-23T10:02:14.568Z,15.64
2023-04-23T10:04:42.197Z,15.58
2023-04-23T10:09:44.246Z,15.49
2023-04-23T10:12:27.737Z,15.54
2023-04-23T10:14:59.817Z,15.64
2023-04-23T10:17:27.569Z,15.79
2023-04-23T10:19:55.895Z,15.95
2023-04-23T10:22:24.134Z,16.10
2023-04-23T10:24:56.372Z,16.20
2023-04-23T10:27:48.650Z,16.29
2023-04-23T10:30:17.307Z,16.48
2023-04-23T10:32:45.731Z,16.61
2023-04-23T10:35:13.213Z,16.73
2023-04-23T10:37:41.721Z,16.74
2023-04-23T10:40:12.469Z,16.73
2023-04-23T10:42:40.840Z,16.64
2023-04-23T10:47:47.154Z,16.81
2023-04-23T10:50:27.972Z,16.85
2023-04-23T10:52:58.517Z,16.91
2023-04-23T10:55:28.454Z,17.04
2023-04-23T10:58:01.189Z,17.17
2023-04-23T11:00:51.014Z,17.31
2023-04-23T11:03:44.380Z,17.44
2023-04-23T11:06:39.810Z,17.52
2023-04-23T11:09:31.120Z,17.62
2023-04-23T11:11:59.794Z,17.65
2023-04-23T11:14:42.151Z,17.56
2023-04-23T11:17:13.387Z,17.40
2023-04-23T11:19:42.549Z,17.21
2023-04-23T11:22:14.187Z,17.24
2023-04-23T11:24:43.182Z,17.42
2023-04-23T11:27:13.088Z,17.59
2023-04-23T11:29:42.567Z,17.80
2023-04-23T11:32:13.013Z,17.96
2023-04-23T11:34:43.150Z,18.01
2023-04-23T11:37:12.532Z,17.99
2023-04-23T11:39:42.019Z,17.98
2023-04-23T11:42:14.245Z,18.01
2023-04-23T11:44:43.146Z,18.02
2023-04-23T11:47:13.672Z,17.97
2023-04-23T11:49:42.979Z,17.80
2023-04-23T11:52:11.717Z,17.69
2023-04-23T11:54:41.272Z,17.68
2023-04-23T11:57:08.922Z,17.87
2023-04-23T11:59:36.474Z,18.03
2023-04-23T12:02:03.807Z,18.06
2023-04-23T12:04:32.386Z,18.06
2023-04-23T12:07:00.256Z,18.00
2023-04-23T12:09:29.232Z,17.96
2023-04-23T12:12:01.097Z,18.08
2023-04-23T12:14:30.996Z,18.23
2023-04-23T12:17:08.851Z,18.31
2023-04-23T12:19:36.521Z,18.30
2023-04-23T12:22:04.474Z,18.26
2023-04-23T12:24:50.541Z,18.12
2023-04-23T12:27:20.567Z,17.96
2023-04-23T12:29:48.487Z,17.85
2023-04-23T12:32:16.018Z,17.78
2023-04-23T12:34:54.163Z,17.68
2023-04-23T12:37:26.952Z,17.63
2023-04-23T12:39:57.087Z,17.71
2023-04-23T12:42:24.921Z,17.78
2023-04-23T12:44:52.778Z,17.75
2023-04-23T12:47:20.098Z,17.62
2023-04-23T12:49:53.511Z,17.51
2023-04-23T12:52:21.382Z,17.45
2023-04-23T12:54:52.729Z,17.36
2023-04-23T12:57:23.467Z,17.30
2023-04-23T12:59:51.191Z,17.31
2023-04-23T13:02:18.648Z,17.34
2023-04-23T13:04:46.212Z,17.34
2023-04-23T13:07:14.092Z,17.39
2023-04-23T13:09:41.649Z,17.46
2023-04-23T13:12:09.357Z,17.56
2023-04-23T13:14:36.748Z,17.66
2023-04-23T13:17:04.088Z,17.77
2023-04-23T13:19:31.703Z,17.88
2023-04-23T13:21:58.997Z,17.96
2023-04-23T13:24:26.340Z,18.02
2023-04-23T13:26:53.585Z,18.01
2023-04-23T13:29:20.881Z,17.99
2023-04-23T13:31:48.231Z,17.91
2023-04-23T13:34:15.560Z,17.89
2023-04-23T13:36:42.938Z,17.96
2023-04-23T13:39:12.124Z,17.99
2023-04-23T13:41:39.843Z,17.96
2023-04-23T13:44:07.333Z,17.97
2023-04-23T13:46:34.709Z,18.00
2023-04-23T13:49:01.935Z,17.97
2023-04-23T13:51:35.351Z,18.00
2023-04-23T13:54:04.300Z,17.98
2023-04-23T13:56:32.109Z,18.00
2023-04-23T13:59:18.818Z,18.01
2023-04-23T14:01:50.380Z,18.03
2023-04-23T14:04:19.305Z,18.06
2023-04-23T14:06:46.662Z,18.11
2023-04-23T14:09:13.910Z,18.17
2023-04-23T14:11:41.705Z,18.23
2023-04-23T14:14:09.285Z,18.29
2023-04-23T14:16:36.556Z,18.39
2023-04-23T14:19:03.840Z,18.42
2023-04-23T14:21:31.151Z,18.45
2023-04-23T14:24:28.445Z,18.47
2023-04-23T14:26:55.737Z,18.41
2023-04-23T14:29:23.093Z,18.30
2023-04-23T14:31:51.094Z,18.13
2023-04-23T14:34:18.509Z,18.06
2023-04-23T14:36:49.243Z,18.02
2023-04-23T14:39:17.112Z,17.99
2023-04-23T14:41:44.814Z,17.97
2023-04-23T14:44:12.163Z,17.96
2023-04-23T14:46:39.411Z,18.00
2023-04-23T14:49:06.858Z,18.10
2023-04-23T14:51:34.492Z,18.20
2023-04-23T14:54:01.853Z,18.30
2023-04-23T14:56:29.229Z,18.36
2023-04-23T14:58:56.455Z,18.42
2023-04-23T15:01:24.432Z,18.43
2023-04-23T15:03:53.212Z,18.44
2023-04-23T15:06:20.764Z,18.42
2023-04-23T15:08:48.491Z,18.39
2023-04-23T15:11:15.857Z,18.36
2023-04-23T15:13:56.213Z,18.34
2023-04-23T15:16:47.282Z,18.33
2023-04-23T15:19:18.085Z,18.31
2023-04-23T15:21:46.355Z,18.27
2023-04-23T15:24:14.734Z,18.22
2023-04-23T15:26:42.526Z,18.19
2023-04-23T15:29:10.619Z,18.15
2023-04-23T15:31:38.502Z,18.11
2023-04-23T15:34:08.896Z,18.09
2023-04-23T15:36:38.292Z,18.08
2023-04-23T15:39:07.236Z,18.09
2023-04-23T15:41:39.312Z,18.08
2023-04-23T15:44:12.037Z,18.08
2023-04-23T15:46:40.854Z,18.06
2023-04-23T15:49:08.223Z,18.07
2023-04-23T15:51:37.592Z,18.04
2023-04-23T15:54:08.285Z,18.01
2023-04-23T15:56:36.560Z,17.99
2023-04-23T15:59:03.945Z,17.98
2023-04-23T16:01:31.169Z,17.95
2023-04-23T16:06:29.254Z,17.88
2023-04-23T16:08:56.459Z,17.85
2023-04-23T16:11:27.572Z,17.81
2023-04-23T16:13:56.125Z,17.78
2023-04-23T16:16:23.405Z,17.74
2023-04-23T16:18:50.828Z,17.72
2023-04-23T16:21:18.128Z,17.68
2023-04-23T16:23:45.456Z,17.59
2023-04-23T16:26:14.101Z,17.56
2023-04-23T16:28:41.559Z,17.51
2023-04-23T16:31:09.002Z,17.48
2023-04-23T16:33:36.655Z,17.46
2023-04-23T16:36:04.494Z,17.42
2023-04-23T16:38:32.007Z,17.37
2023-04-23T16:40:59.231Z,17.29
2023-04-23T16:43:27.564Z,17.21
2023-04-23T16:45:54.938Z,17.14
2023-04-23T16:48:22.210Z,17.07
2023-04-23T16:50:49.477Z,17.00
2023-04-23T16:53:16.735Z,16.92
2023-04-23T16:55:45.764Z,16.85
2023-04-23T16:58:13.022Z,16.77
2023-04-23T17:00:40.636Z,16.70
2023-04-23T17:03:08.168Z,16.64
2023-04-23T17:05:40.131Z,16.57
2023-04-23T17:08:07.520Z,16.51
2023-04-23T17:10:34.766Z,16.47
2023-04-23T17:13:02.182Z,16.43
2023-04-23T17:15:29.614Z,16.37
2023-04-23T17:17:57.099Z,16.31
2023-04-23T17:20:24.570Z,16.26
2023-04-23T17:22:51.916Z,16.23
2023-04-23T17:25:19.471Z,16.17
2023-04-23T17:27:46.965Z,16.14
2023-04-23T17:30:15.379Z,16.10
2023-04-23T17:32:42.649Z,16.06
2023-04-23T17:35:11.021Z,16.01
2023-04-23T17:37:38.475Z,15.93
2023-04-23T17:40:06.352Z,15.87
2023-04-23T17:42:35.496Z,15.59
2023-04-23T17:45:02.994Z,15.26
2023-04-23T17:47:30.924Z,14.87
2023-04-23T17:49:58.098Z,14.52
2023-04-23T17:52:25.516Z,14.22
2023-04-23T17:54:52.771Z,13.90
2023-04-23T17:57:19.979Z,13.63
2023-04-23T17:59:47.300Z,13.52
2023-04-23T18:02:15.266Z,13.41
2023-04-23T18:04:42.746Z,13.37
2023-04-23T18:07:09.924Z,13.29
2023-04-23T18:09:37.161Z,13.14
2023-04-23T18:12:05.109Z,13.07
2023-04-23T18:14:32.341Z,13.01
2023-04-23T18:16:59.570Z,12.94
2023-04-23T18:19:26.875Z,12.95
2023-04-23T18:21:55.063Z,12.97
2023-04-23T18:24:22.343Z,12.95
2023-04-23T18:26:51.996Z,12.81
2023-04-23T18:29:19.341Z,12.67
2023-04-23T18:31:46.587Z,12.62
2023-04-23T18:34:18.257Z,12.59
2023-04-23T18:36:49.395Z,12.56
2023-04-23T18:39:16.754Z,12.55
2023-04-23T18:41:44.372Z,12.57
2023-04-23T18:44:13.233Z,12.57
2023-04-23T18:46:40.987Z,12.59
2023-04-23T18:49:31.328Z,12.62
2023-04-23T18:51:58.562Z,12.63
2023-04-23T18:54:26.878Z,12.57
2023-04-23T18:56:54.306Z,12.43
2023-04-23T18:59:21.600Z,12.31
2023-04-23T19:01:49.831Z,12.24
2023-04-23T19:04:17.327Z,12.19
2023-04-23T19:06:44.933Z,12.20
2023-04-23T19:09:12.146Z,12.15
2023-04-23T19:11:39.399Z,12.09
2023-04-23T19:14:06.669Z,12.01
2023-04-23T19:16:34.169Z,11.92
2023-04-23T19:19:01.489Z,11.84
2023-04-23T19:21:29.050Z,11.79
2023-04-23T19:23:56.717Z,11.76
2023-04-23T19:26:23.923Z,11.74
2023-04-23T19:28:51.162Z,11.72
2023-04-23T19:31:18.460Z,11.70
2023-04-23T19:33:47.500Z,11.74
2023-04-23T19:36:15.103Z,11.76
2023-04-23T19:38:42.333Z,11.78
2023-04-23T19:41:09.666Z,11.82
2023-04-23T19:43:36.943Z,11.84
2023-04-23T19:46:04.193Z,11.87
2023-04-23T19:48:34.175Z,11.90
2023-04-23T19:51:01.808Z,11.91
2023-04-23T19:53:29.324Z,11.89
2023-04-23T19:55:56.541Z,11.89
2023-04-23T19:58:23.673Z,11.88
2023-04-23T20:00:52.238Z,11.85
2023-04-23T20:03:19.823Z,11.81
2023-04-23T20:05:48.263Z,11.80
2023-04-23T20:08:25.811Z,11.82
2023-04-23T20:10:53.637Z,11.84
2023-04-23T20:13:21.296Z,11.85
2023-04-23T20:15:50.175Z,11.85
2023-04-23T20:18:18.335Z,11.82
2023-04-23T20:20:45.719Z,11.80
2023-04-23T20:23:13.066Z,11.77
2023-04-23T20:25:40.515Z,11.77
2023-04-23T20:28:10.020Z,11.73
2023-04-23T20:30:37.402Z,11.65
2023-04-23T20:33:05.478Z,11.57
2023-04-23T20:35:33.704Z,11.46
2023-04-23T20:38:01.185Z,11.42
2023-04-23T20:40:28.437Z,11.37
2023-04-23T20:42:58.599Z,11.30
2023-04-23T20:45:25.997Z,11.25
2023-04-23T20:47:54.417Z,11.19
2023-04-23T20:50:21.914Z,11.17
2023-04-23T20:52:49.227Z,11.11
2023-04-23T20:55:16.525Z,11.09
2023-04-23T20:57:43.853Z,11.04
2023-04-23T21:00:14.329Z,11.00
2023-04-23T21:02:42.016Z,10.97
2023-04-23T21:05:11.866Z,10.95
2023-04-23T21:07:39.425Z,10.95
2023-04-23T21:10:07.587Z,10.90
2023-04-23T21:12:35.387Z,10.86
2023-04-23T21:15:02.739Z,10.83
2023-04-23T21:17:30.256Z,10.82
2023-04-23T21:19:57.529Z,10.76
2023-04-23T21:22:24.757Z,10.73
2023-04-23T21:24:51.992Z,10.74
2023-04-23T21:27:21.822Z,10.73
2023-04-23T21:29:49.686Z,10.73
2023-04-23T21:32:17.532Z,10.73
2023-04-23T21:34:44.910Z,10.72
2023-04-23T21:37:12.178Z,10.67
2023-04-23T21:39:39.439Z,10.63
2023-04-23T21:42:07.577Z,10.61
2023-04-23T21:44:36.447Z,10.59
2023-04-23T21:47:04.335Z,10.57
2023-04-23T21:49:31.902Z,10.57
2023-04-23T21:52:00.585Z,10.56
2023-04-23T21:54:27.820Z,10.57
2023-04-23T21:56:55.248Z,10.57
2023-04-23T21:59:24.370Z,10.56
2023-04-23T22:01:51.774Z,10.56
2023-04-23T22:04:19.227Z,10.58
2023-04-23T22:06:46.582Z,10.60
2023-04-23T22:09:14.140Z,10.59
2023-04-23T22:11:48.915Z,10.58
2023-04-23T22:14:22.938Z,10.61
2023-04-23T22:16:51.207Z,10.58
2023-04-23T22:19:18.904Z,10.59
2023-04-23T22:21:46.267Z,10.60
2023-04-23T22:24:13.585Z,10.60
2023-04-23T22:26:40.828Z,10.58
2023-04-23T22:29:08.698Z,10.59
2023-04-23T22:31:35.871Z,10.59
2023-04-23T22:34:03.208Z,10.60
2023-04-23T22:36:31.898Z,10.57
2023-04-23T22:38:59.172Z,10.54
2023-04-23T22:41:26.448Z,10.54
2023-04-23T22:43:54.315Z,10.53
2023-04-23T22:46:21.919Z,10.53
2023-04-23T22:48:49.382Z,10.56
2023-04-23T22:51:17.580Z,10.58
2023-04-23T22:53:44.716Z,10.59
2023-04-23T22:56:12.150Z,10.62
2023-04-23T22:58:39.397Z,10.63
2023-04-23T23:01:07.034Z,10.63
2023-04-23T23:03:34.565Z,10.59
2023-04-23T23:06:02.211Z,10.58
2023-04-23T23:08:29.471Z,10.60
2023-04-23T23:10:56.710Z,10.65
2023-04-23T23:13:23.959Z,10.67
2023-04-23T23:15:51.221Z,10.65
2023-04-23T23:18:18.612Z,10.64
2023-04-23T23:20:46.112Z,10.63
2023-04-23T23:23:13.402Z,10.66
2023-04-23T23:25:41.053Z,10.66
2023-04-23T23:28:08.361Z,10.68
2023-04-23T23:30:35.791Z,10.71
2023-04-23T23:33:03.183Z,10.72
2023-04-23T23:35:30.948Z,10.72
2023-04-23T23:37:58.363Z,10.72
2023-04-23T23:40:25.640Z,10.73
2023-04-23T23:42:53.185Z,10.72
2023-04-23T23:45:20.629Z,10.73
2023-04-23T23:47:48.027Z,10.74
2023-04-23T23:50:15.439Z,10.76
2023-04-23T23:52:42.749Z,10.75
2023-04-23T23:55:10.436Z,10.75
2023-04-23T23:57:37.920Z,10.75
